Darstellungsparameter: Aktuell verwendete Einstellungen:
Skalierung der Graphiken ... ?
xyx+y,   Skalierungsfaktor:      Skalierung: Modus: x, Faktor: 1
Darstellungszeitraum ... ?
Vom - - bis: - -   Zeitraum: 29.03.2019 - 29.03.2019
Min/Max/Avg-Anzeige ... ?
Zeige MMA aktuell
Zeige MMA Monat
Zeige MMA alles
Zeige --A aktuell
Zeige --A Monat
Zeige --A alles
Keine MMA-Anzeige
MMA:
Keine MMA-Graphiken
MMA-Basis: 29.03.2019 - 29.03.2019
Quicknavigation für Darstellung... ?
Tage:      1T, 2T, 3T, 5T -1T -2T -3T -5T +1T +2T +3T +5T
Wochen: 1W, 2W, 3W -1W -2W -3W +1W +2W +3W
Monate: 1M, 3M, 6M -1M -3M -6M +1M +3M +6M
Jahre:    1J, 3J, 5J, 10J -1J -3J -5J -10J +1J +3J +5J +10J
Nutze für die Darstellung ... ?
Originaldaten oder Mittelwerte auf ...
Stundenbasis Tagesbasis Wochenbasis
Monatsbasis Jahresbasis      Datenbasis: Original-Daten
Darstellen als:
Statistik (Auto) Statistik J:M      Darstellung:
Zur Graphik,    zurück zur Übersicht aller Sensoren.
 
Tabellarische Datenbersicht: ?
 
Sensor: Nr:Datum:Temp:Abs-Feuchte:Windchill:Wind:
Aussen-T/F 1 29-03-2019 00:00:00 5.7 C 6.4 g/m*3 5.7 C 0 km/h
2 29-03-2019 00:05:00 5.6 C 6.36 g/m*3 5.6 C 0 km/h
3 29-03-2019 00:10:00 5.6 C 6.36 g/m*3 5.6 C 0 km/h
4 29-03-2019 00:15:00 5.4 C 6.28 g/m*3 5.4 C 0 km/h
5 29-03-2019 00:20:00 5.2 C 6.2 g/m*3 5.2 C 0 km/h
6 29-03-2019 00:25:00 5.3 C 6.31 g/m*3 5.3 C 0 km/h
7 29-03-2019 00:30:00 5.3 C 6.31 g/m*3 5.3 C 0 km/h
8 29-03-2019 00:35:00 5.2 C 6.27 g/m*3 5.2 C 0 km/h
9 29-03-2019 00:40:00 5.2 C 6.27 g/m*3 5.2 C 0 km/h
10 29-03-2019 00:45:00 5.1 C 6.22 g/m*3 5.1 C 0 km/h
11 29-03-2019 00:50:00 5 C 6.18 g/m*3 5 C 0 km/h
12 29-03-2019 00:55:00 4.8 C 6.1 g/m*3 4.8 C 0 km/h
13 29-03-2019 01:00:00 4.7 C 6.06 g/m*3 4.7 C 0 km/h
14 29-03-2019 01:05:00 4.6 C 6.09 g/m*3 4.6 C 0 km/h
15 29-03-2019 01:10:00 4.6 C 6.09 g/m*3 4.6 C 0 km/h
16 29-03-2019 01:15:00 4.5 C 6.05 g/m*3 4.5 C 0 km/h
17 29-03-2019 01:20:00 4.4 C 6.01 g/m*3 4.4 C 0 km/h
18 29-03-2019 01:25:00 4.3 C 5.97 g/m*3 4.3 C 0 km/h
19 29-03-2019 01:30:00 4.4 C 6.07 g/m*3 4.4 C 0 km/h
20 29-03-2019 01:35:00 4.3 C 6.03 g/m*3 4.3 C 0 km/h
21 29-03-2019 01:40:00 4.2 C 5.93 g/m*3 4.2 C 0 km/h
22 29-03-2019 01:45:00 4.1 C 5.89 g/m*3 4.1 C 0 km/h
23 29-03-2019 01:50:00 4 C 5.91 g/m*3 4 C 0 km/h
24 29-03-2019 01:55:00 4.1 C 5.95 g/m*3 4.1 C 0 km/h
25 29-03-2019 02:00:00 4.1 C 5.95 g/m*3 4.1 C 0 km/h
Sensor: Nr:Datum:Temp:Abs-Feuchte:Windchill:Wind:
Aussen-T/F 26 29-03-2019 02:05:00 3.9 C 5.87 g/m*3 3.9 C 0 km/h
27 29-03-2019 02:10:00 4 C 5.98 g/m*3 4 C 0 km/h
28 29-03-2019 02:15:00 4 C 5.91 g/m*3 4 C 0 km/h
29 29-03-2019 02:20:00 3.9 C 5.87 g/m*3 3.9 C 0 km/h
30 29-03-2019 02:25:00 3.8 C 5.83 g/m*3 3.8 C 0 km/h
31 29-03-2019 02:30:00 3.8 C 5.83 g/m*3 3.8 C 0 km/h
32 29-03-2019 02:35:00 3.9 C 5.94 g/m*3 3.9 C 0 km/h
33 29-03-2019 02:40:00 3.8 C 5.9 g/m*3 3.8 C 0 km/h
34 29-03-2019 02:45:00 3.8 C 5.9 g/m*3 3.8 C 0 km/h
35 29-03-2019 02:50:00 3.7 C 5.86 g/m*3 3.7 C 0 km/h
36 29-03-2019 02:55:00 3.6 C 5.82 g/m*3 3.6 C 0 km/h
37 29-03-2019 03:00:00 3.6 C 5.82 g/m*3 3.6 C 0 km/h
38 29-03-2019 03:05:00 3.5 C 5.78 g/m*3 3.5 C 0 km/h
39 29-03-2019 03:10:00 3.3 C 5.7 g/m*3 3.3 C 0 km/h
40 29-03-2019 03:15:00 3.2 C 5.66 g/m*3 3.2 C 0 km/h
41 29-03-2019 03:20:00 3.1 C 5.63 g/m*3 3.1 C 0 km/h
42 29-03-2019 03:25:00 2.9 C 5.55 g/m*3 2.9 C 0 km/h
43 29-03-2019 03:30:00 2.8 C 5.51 g/m*3 2.8 C 0 km/h
44 29-03-2019 03:35:00 2.8 C 5.51 g/m*3 2.8 C 0 km/h
45 29-03-2019 03:40:00 2.8 C 5.51 g/m*3 2.8 C 0 km/h
46 29-03-2019 03:45:00 2.9 C 5.55 g/m*3 2.9 C 0 km/h
47 29-03-2019 03:50:00 2.9 C 5.55 g/m*3 2.9 C 0 km/h
48 29-03-2019 03:55:00 2.9 C 5.55 g/m*3 2.9 C 0 km/h
49 29-03-2019 04:00:00 2.9 C 5.61 g/m*3 2.9 C 0 km/h
50 29-03-2019 04:05:00 2.9 C 5.61 g/m*3 2.9 C 0 km/h
Sensor: Nr:Datum:Temp:Abs-Feuchte:Windchill:Wind:
Aussen-T/F 51 29-03-2019 04:10:00 3 C 5.65 g/m*3 3 C 0 km/h
52 29-03-2019 04:15:00 3 C 5.65 g/m*3 3 C 0 km/h
53 29-03-2019 04:20:00 2.9 C 5.61 g/m*3 2.9 C 0 km/h
54 29-03-2019 04:25:00 2.8 C 5.57 g/m*3 2.8 C 0 km/h
55 29-03-2019 04:30:00 2.8 C 5.57 g/m*3 2.8 C 0 km/h
56 29-03-2019 04:35:00 2.9 C 5.61 g/m*3 2.9 C 0 km/h
57 29-03-2019 04:40:00 3.1 C 5.69 g/m*3 3.1 C 0 km/h
58 29-03-2019 04:45:00 2.9 C 5.61 g/m*3 2.9 C 0 km/h
59 29-03-2019 04:50:00 2.8 C 5.57 g/m*3 2.8 C 0 km/h
60 29-03-2019 04:55:00 2.7 C 5.54 g/m*3 2.7 C 0 km/h
61 29-03-2019 05:00:00 2.6 C 5.5 g/m*3 2.6 C 0 km/h
62 29-03-2019 05:05:00 2.5 C 5.46 g/m*3 2.5 C 0 km/h
63 29-03-2019 05:10:00 2.3 C 5.39 g/m*3 2.3 C 0 km/h
64 29-03-2019 05:15:00 2.3 C 5.39 g/m*3 2.3 C 0 km/h
65 29-03-2019 05:20:00 2.3 C 5.39 g/m*3 2.3 C 0 km/h
66 29-03-2019 05:25:00 2.2 C 5.35 g/m*3 2.2 C 0 km/h
67 29-03-2019 05:30:00 2.1 C 5.31 g/m*3 2.1 C 0 km/h
68 29-03-2019 05:35:00 2.2 C 5.35 g/m*3 2.2 C 0 km/h
69 29-03-2019 05:40:00 2.1 C 5.31 g/m*3 2.1 C 0 km/h
70 29-03-2019 05:45:00 1.9 C 5.24 g/m*3 1.9 C 0 km/h
71 29-03-2019 05:50:00 1.8 C 5.21 g/m*3 1.8 C 0 km/h
72 29-03-2019 05:55:00 1.9 C 5.24 g/m*3 1.9 C 0 km/h
73 29-03-2019 06:00:00 2 C 5.28 g/m*3 2 C 0 km/h
74 29-03-2019 06:05:00 2.1 C 5.31 g/m*3 2.1 C 0 km/h
75 29-03-2019 06:10:00 2.1 C 5.31 g/m*3 2.1 C 0 km/h
Sensor: Nr:Datum:Temp:Abs-Feuchte:Windchill:Wind:
Aussen-T/F 76 29-03-2019 06:15:00 2.1 C 5.31 g/m*3 2.1 C 0 km/h
77 29-03-2019 06:20:00 2 C 5.28 g/m*3 2 C 0 km/h
78 29-03-2019 06:25:00 2 C 5.28 g/m*3 2 C 0 km/h
79 29-03-2019 06:30:00 2.1 C 5.31 g/m*3 2.1 C 0 km/h
80 29-03-2019 06:35:00 2.1 C 5.31 g/m*3 2.1 C 0 km/h
81 29-03-2019 06:40:00 2.1 C 5.31 g/m*3 2.1 C 0 km/h
82 29-03-2019 06:45:00 2.1 C 5.31 g/m*3 2.1 C 0 km/h
83 29-03-2019 06:50:00 2.1 C 5.31 g/m*3 2.1 C 0 km/h
84 29-03-2019 06:55:00 2.1 C 5.31 g/m*3 2.1 C 0 km/h
85 29-03-2019 07:00:00 2.1 C 5.37 g/m*3 2.1 C 0 km/h
86 29-03-2019 07:05:00 2.1 C 5.31 g/m*3 2.1 C 0 km/h
87 29-03-2019 07:10:00 2 C 5.28 g/m*3 2 C 0 km/h
88 29-03-2019 07:15:00 2 C 5.33 g/m*3 2 C 0 km/h
89 29-03-2019 07:20:00 2 C 5.33 g/m*3 2 C 0 km/h
90 29-03-2019 07:25:00 2.1 C 5.37 g/m*3 2.1 C 0 km/h
91 29-03-2019 07:30:00 2.1 C 5.37 g/m*3 2.1 C 0 km/h
92 29-03-2019 07:35:00 2.2 C 5.41 g/m*3 2.2 C 0 km/h
93 29-03-2019 07:40:00 2.3 C 5.44 g/m*3 2.3 C 0 km/h
94 29-03-2019 07:45:00 2.4 C 5.48 g/m*3 2.4 C 0 km/h
95 29-03-2019 07:50:00 2.4 C 5.48 g/m*3 2.4 C 0 km/h
96 29-03-2019 07:55:00 2.4 C 5.48 g/m*3 2.4 C 0 km/h
97 29-03-2019 08:00:00 2.4 C 5.48 g/m*3 2.4 C 0 km/h
98 29-03-2019 08:05:00 2.5 C 5.52 g/m*3 2.5 C 0 km/h
99 29-03-2019 08:10:00 2.6 C 5.56 g/m*3 2.6 C 0 km/h
100 29-03-2019 08:15:00 2.7 C 5.59 g/m*3 2.7 C 0 km/h
Sensor: Nr:Datum:Temp:Abs-Feuchte:Windchill:Wind:
Aussen-T/F 101 29-03-2019 08:20:00 2.8 C 5.63 g/m*3 2.8 C 0 km/h
102 29-03-2019 08:25:00 2.8 C 5.63 g/m*3 2.8 C 0 km/h
103 29-03-2019 08:30:00 2.9 C 5.67 g/m*3 2.9 C 0 km/h
104 29-03-2019 08:35:00 3.1 C 5.75 g/m*3 3.1 C 0 km/h
105 29-03-2019 08:40:00 3.2 C 5.79 g/m*3 3.2 C 0 km/h
106 29-03-2019 08:45:00 3.3 C 5.82 g/m*3 3.3 C 0 km/h
107 29-03-2019 08:50:00 3.4 C 5.92 g/m*3 3.4 C 0 km/h
108 29-03-2019 08:55:00 3.5 C 5.9 g/m*3 3.5 C 0 km/h
109 29-03-2019 09:00:00 3.7 C 5.98 g/m*3 3.7 C 0 km/h
110 29-03-2019 09:05:00 3.9 C 6.13 g/m*3 3.9 C 0 km/h
111 29-03-2019 09:10:00 4.1 C 6.21 g/m*3 4.1 C 0 km/h
112 29-03-2019 09:15:00 4.3 C 6.29 g/m*3 4.3 C 0 km/h
113 29-03-2019 09:20:00 4.5 C 6.38 g/m*3 4.5 C 0 km/h
114 29-03-2019 09:25:00 4.7 C 6.46 g/m*3 4.7 C 0 km/h
115 29-03-2019 09:30:00 5 C 6.59 g/m*3 5 C 0 km/h
116 29-03-2019 09:35:00 5.3 C 6.72 g/m*3 5.3 C 0 km/h
117 29-03-2019 09:40:00 5.5 C 6.81 g/m*3 5.5 C 0 km/h
118 29-03-2019 09:45:00 5.8 C 6.95 g/m*3 5.8 C 0 km/h
119 29-03-2019 09:50:00 6.1 C 7.09 g/m*3 6.1 C 0 km/h
120 29-03-2019 09:55:00 6.4 C 7.23 g/m*3 6.4 C 0 km/h
121 29-03-2019 10:00:00 6.8 C 7.42 g/m*3 6.8 C 0 km/h
122 29-03-2019 10:05:00 7 C 7.52 g/m*3 7 C 0 km/h
123 29-03-2019 10:10:00 7.2 C 7.61 g/m*3 7.2 C 0 km/h
124 29-03-2019 10:15:00 7.4 C 7.71 g/m*3 7.4 C 0 km/h
125 29-03-2019 10:20:00 7.6 C 7.81 g/m*3 7.6 C 0 km/h
Sensor: Nr:Datum:Temp:Abs-Feuchte:Windchill:Wind:
Aussen-T/F 126 29-03-2019 10:25:00 7.8 C 7.92 g/m*3 7.8 C 0 km/h
127 29-03-2019 10:30:00 8.1 C 8.07 g/m*3 8.1 C 0 km/h
128 29-03-2019 10:35:00 8.4 C 8.14 g/m*3 8.4 C 0 km/h
129 29-03-2019 10:40:00 8.7 C 8.3 g/m*3 8.7 C 0 km/h
130 29-03-2019 10:45:00 9 C 8.38 g/m*3 9 C 1.6 km/h
131 29-03-2019 10:50:00 9.3 C 8.36 g/m*3 9.3 C 1.6 km/h
132 29-03-2019 10:55:00 9.8 C 8.54 g/m*3 9.8 C 3.2 km/h
133 29-03-2019 11:00:00 10.2 C 8.56 g/m*3 9.6 C 6.4 km/h
134 29-03-2019 11:05:00 10.8 C 8.6 g/m*3 9.93 C 8.1 km/h
135 29-03-2019 11:10:00 11.4 C 8.52 g/m*3 11.4 C 11.3 km/h
136 29-03-2019 11:15:00 11.8 C 8.53 g/m*3 11.8 C 6.4 km/h
137 29-03-2019 11:20:00 12.1 C 8.58 g/m*3 12.1 C 6.4 km/h
138 29-03-2019 11:25:00 12.6 C 8.41 g/m*3 12.6 C 12.9 km/h
139 29-03-2019 11:30:00 12.9 C 8.68 g/m*3 12.9 C 6.4 km/h
140 29-03-2019 11:35:00 13.1 C 8.56 g/m*3 13.1 C 4.8 km/h
141 29-03-2019 11:40:00 13.3 C 8.43 g/m*3 13.3 C 9.7 km/h
142 29-03-2019 11:45:00 13.7 C 8.29 g/m*3 13.7 C 16.1 km/h
143 29-03-2019 11:50:00 13.9 C 8.63 g/m*3 13.9 C 16.1 km/h
144 29-03-2019 11:55:00 14 C 8.32 g/m*3 14 C 12.9 km/h
145 29-03-2019 12:00:00 14.2 C 8.43 g/m*3 14.2 C 9.7 km/h
146 29-03-2019 12:05:00 14.2 C 8.3 g/m*3 14.2 C 11.3 km/h
147 29-03-2019 12:10:00 14.2 C 8.3 g/m*3 14.2 C 8.1 km/h
148 29-03-2019 12:15:00 14.2 C 8.18 g/m*3 14.2 C 9.7 km/h
149 29-03-2019 12:20:00 14.3 C 8.23 g/m*3 14.3 C 4.8 km/h
150 29-03-2019 12:25:00 14.3 C 8.23 g/m*3 14.3 C 4.8 km/h
Sensor: Nr:Datum:Temp:Abs-Feuchte:Windchill:Wind:
Aussen-T/F 151 29-03-2019 12:30:00 14.5 C 8.21 g/m*3 14.5 C 6.4 km/h
152 29-03-2019 12:35:00 14.7 C 8.31 g/m*3 14.7 C 9.7 km/h
153 29-03-2019 12:40:00 14.7 C 8.31 g/m*3 14.7 C 11.3 km/h
154 29-03-2019 12:45:00 14.7 C 8.31 g/m*3 14.7 C 9.7 km/h
155 29-03-2019 12:50:00 14.8 C 8.36 g/m*3 14.8 C 6.4 km/h
156 29-03-2019 12:55:00 14.9 C 8.28 g/m*3 14.9 C 9.7 km/h
157 29-03-2019 13:00:00 15 C 8.33 g/m*3 15 C 1.6 km/h
158 29-03-2019 13:05:00 15.3 C 8.36 g/m*3 15.3 C 9.7 km/h
159 29-03-2019 13:10:00 15.6 C 8.11 g/m*3 15.6 C 14.5 km/h
160 29-03-2019 13:15:00 15.9 C 8.13 g/m*3 15.9 C 11.3 km/h
161 29-03-2019 13:20:00 16 C 8.04 g/m*3 16 C 9.7 km/h
162 29-03-2019 13:25:00 16 C 8.31 g/m*3 16 C 11.3 km/h
163 29-03-2019 13:30:00 16 C 8.17 g/m*3 16 C 8.1 km/h
164 29-03-2019 13:35:00 16.1 C 8.09 g/m*3 16.1 C 9.7 km/h
165 29-03-2019 13:40:00 16.2 C 8 g/m*3 16.2 C 9.7 km/h
166 29-03-2019 13:45:00 16.3 C 7.91 g/m*3 16.3 C 16.1 km/h
167 29-03-2019 13:50:00 16.3 C 8.19 g/m*3 16.3 C 9.7 km/h
168 29-03-2019 13:55:00 16.5 C 8 g/m*3 16.5 C 11.3 km/h
169 29-03-2019 14:00:00 16.6 C 7.91 g/m*3 16.6 C 9.7 km/h
170 29-03-2019 14:05:00 16.7 C 7.96 g/m*3 16.7 C 8.1 km/h
171 29-03-2019 14:10:00 16.7 C 8.1 g/m*3 16.7 C 9.7 km/h
172 29-03-2019 14:15:00 16.8 C 8.15 g/m*3 16.8 C 11.3 km/h
173 29-03-2019 14:20:00 16.9 C 7.77 g/m*3 16.9 C 11.3 km/h
174 29-03-2019 14:25:00 16.8 C 7.72 g/m*3 16.8 C 14.5 km/h
175 29-03-2019 14:30:00 16.8 C 7.72 g/m*3 16.8 C 12.9 km/h
Sensor: Nr:Datum:Temp:Abs-Feuchte:Windchill:Wind:
Aussen-T/F 176 29-03-2019 14:35:00 16.8 C 7.86 g/m*3 16.8 C 12.9 km/h
177 29-03-2019 14:40:00 16.9 C 8.05 g/m*3 16.9 C 4.8 km/h
178 29-03-2019 14:45:00 17 C 7.96 g/m*3 17 C 11.3 km/h
179 29-03-2019 14:50:00 17.1 C 8.01 g/m*3 17.1 C 9.7 km/h
180 29-03-2019 14:55:00 16.9 C 7.77 g/m*3 16.9 C 14.5 km/h
181 29-03-2019 15:00:00 16.9 C 7.77 g/m*3 16.9 C 6.4 km/h
182 29-03-2019 15:05:00 17.1 C 7.86 g/m*3 17.1 C 11.3 km/h
183 29-03-2019 15:10:00 17.1 C 7.86 g/m*3 17.1 C 6.4 km/h
184 29-03-2019 15:15:00 17.2 C 7.91 g/m*3 17.2 C 9.7 km/h
185 29-03-2019 15:20:00 17.3 C 7.81 g/m*3 17.3 C 9.7 km/h
186 29-03-2019 15:25:00 17.4 C 7.85 g/m*3 17.4 C 11.3 km/h
187 29-03-2019 15:30:00 17.5 C 7.75 g/m*3 17.5 C 9.7 km/h
188 29-03-2019 15:35:00 17.7 C 7.85 g/m*3 17.7 C 9.7 km/h
189 29-03-2019 15:40:00 17.8 C 7.89 g/m*3 17.8 C 11.3 km/h
190 29-03-2019 15:45:00 17.9 C 7.63 g/m*3 17.9 C 11.3 km/h
191 29-03-2019 15:50:00 17.9 C 7.63 g/m*3 17.9 C 9.7 km/h
192 29-03-2019 15:55:00 17.9 C 7.79 g/m*3 17.9 C 9.7 km/h
193 29-03-2019 16:00:00 17.9 C 7.63 g/m*3 17.9 C 8.1 km/h
194 29-03-2019 16:05:00 18 C 7.68 g/m*3 18 C 6.4 km/h
195 29-03-2019 16:10:00 18.1 C 7.73 g/m*3 18.1 C 11.3 km/h
196 29-03-2019 16:15:00 18.1 C 7.88 g/m*3 18.1 C 12.9 km/h
197 29-03-2019 16:20:00 18.3 C 7.82 g/m*3 18.3 C 6.4 km/h
198 29-03-2019 16:25:00 18.5 C 7.91 g/m*3 18.5 C 6.4 km/h
199 29-03-2019 16:30:00 18.8 C 7.89 g/m*3 18.8 C 6.4 km/h
200 29-03-2019 16:35:00 18.7 C 7.68 g/m*3 18.7 C 12.9 km/h
Sensor: Nr:Datum:Temp:Abs-Feuchte:Windchill:Wind:
Aussen-T/F 201 29-03-2019 16:40:00 18.4 C 7.86 g/m*3 18.4 C 12.9 km/h
202 29-03-2019 16:45:00 18.4 C 7.55 g/m*3 18.4 C 9.7 km/h
203 29-03-2019 16:50:00 18.7 C 8.17 g/m*3 18.7 C 4.8 km/h
204 29-03-2019 16:55:00 19.1 C 8.03 g/m*3 19.1 C 6.4 km/h
205 29-03-2019 17:00:00 19 C 7.66 g/m*3 19 C 6.4 km/h
206 29-03-2019 17:05:00 18.9 C 7.78 g/m*3 18.9 C 6.4 km/h
207 29-03-2019 17:10:00 18.7 C 7.52 g/m*3 18.7 C 4.8 km/h
208 29-03-2019 17:15:00 18.8 C 8.37 g/m*3 18.8 C 0 km/h
209 29-03-2019 17:20:00 19.1 C 7.7 g/m*3 19.1 C 6.4 km/h
210 29-03-2019 17:25:00 19.2 C 7.91 g/m*3 19.2 C 3.2 km/h
211 29-03-2019 17:30:00 19.1 C 7.54 g/m*3 19.1 C 6.4 km/h
212 29-03-2019 17:35:00 19.1 C 7.54 g/m*3 19.1 C 4.8 km/h
213 29-03-2019 17:40:00 19.1 C 7.38 g/m*3 19.1 C 3.2 km/h
214 29-03-2019 17:45:00 18.9 C 7.45 g/m*3 18.9 C 6.4 km/h
215 29-03-2019 17:50:00 18.7 C 7.52 g/m*3 18.7 C 1.6 km/h
216 29-03-2019 17:55:00 18.7 C 8.01 g/m*3 18.7 C 4.8 km/h
217 29-03-2019 18:00:00 18.6 C 7.64 g/m*3 18.6 C 8.1 km/h
218 29-03-2019 18:05:00 18.4 C 8.18 g/m*3 18.4 C 4.8 km/h
219 29-03-2019 18:10:00 18.3 C 7.35 g/m*3 18.3 C 6.4 km/h
220 29-03-2019 18:15:00 18.1 C 7.26 g/m*3 18.1 C 3.2 km/h
221 29-03-2019 18:20:00 17.9 C 7.94 g/m*3 17.9 C 0 km/h
222 29-03-2019 18:25:00 17.7 C 8 g/m*3 17.7 C 3.2 km/h
223 29-03-2019 18:30:00 17.3 C 7.81 g/m*3 17.3 C 1.6 km/h
224 29-03-2019 18:35:00 16.9 C 7.91 g/m*3 16.9 C 3.2 km/h
225 29-03-2019 18:40:00 16.3 C 7.77 g/m*3 16.3 C 1.6 km/h
Sensor: Nr:Datum:Temp:Abs-Feuchte:Windchill:Wind:
Aussen-T/F 226 29-03-2019 18:45:00 15.4 C 7.75 g/m*3 15.4 C 0 km/h
227 29-03-2019 18:50:00 14.7 C 7.68 g/m*3 14.7 C 0 km/h
228 29-03-2019 18:55:00 13.9 C 7.55 g/m*3 13.9 C 0 km/h
229 29-03-2019 19:00:00 13.2 C 7.35 g/m*3 13.2 C 0 km/h
230 29-03-2019 19:05:00 12.7 C 7.46 g/m*3 12.7 C 4.8 km/h
231 29-03-2019 19:10:00 12.3 C 7.38 g/m*3 12.3 C 4.8 km/h
232 29-03-2019 19:15:00 11.9 C 7.31 g/m*3 11.9 C 4.8 km/h
233 29-03-2019 19:20:00 11.6 C 7.28 g/m*3 11.6 C 6.4 km/h
234 29-03-2019 19:25:00 11.4 C 7.29 g/m*3 11.4 C 6.4 km/h
235 29-03-2019 19:30:00 11.2 C 7.2 g/m*3 11.2 C 6.4 km/h
236 29-03-2019 19:35:00 11.1 C 7.25 g/m*3 11.1 C 6.4 km/h
237 29-03-2019 19:40:00 10.9 C 7.16 g/m*3 10.41 C 6.4 km/h
238 29-03-2019 19:45:00 10.8 C 7.12 g/m*3 10.29 C 6.4 km/h
239 29-03-2019 19:50:00 10.8 C 7.12 g/m*3 10.29 C 6.4 km/h
240 29-03-2019 19:55:00 10.7 C 7.17 g/m*3 10.18 C 6.4 km/h
241 29-03-2019 20:00:00 10.6 C 7.12 g/m*3 10.06 C 6.4 km/h
242 29-03-2019 20:05:00 10.5 C 7.18 g/m*3 9.95 C 6.4 km/h
243 29-03-2019 20:10:00 10.4 C 7.13 g/m*3 10.4 C 4.8 km/h
244 29-03-2019 20:15:00 10.3 C 7.18 g/m*3 10.3 C 1.6 km/h
245 29-03-2019 20:20:00 10.1 C 7.09 g/m*3 10.1 C 0 km/h
246 29-03-2019 20:25:00 9.9 C 7.1 g/m*3 9.9 C 0 km/h
247 29-03-2019 20:30:00 9.8 C 7.14 g/m*3 9.8 C 0 km/h
248 29-03-2019 20:35:00 9.7 C 7.19 g/m*3 9.7 C 0 km/h
249 29-03-2019 20:40:00 9.5 C 7.01 g/m*3 9.5 C 0 km/h
250 29-03-2019 20:45:00 9.3 C 7.01 g/m*3 9.3 C 0 km/h
Sensor: Nr:Datum:Temp:Abs-Feuchte:Windchill:Wind:
Aussen-T/F 251 29-03-2019 20:50:00 9.2 C 7.05 g/m*3 9.2 C 0 km/h
252 29-03-2019 20:55:00 9.1 C 7.01 g/m*3 9.1 C 0 km/h
253 29-03-2019 21:00:00 8.9 C 7.01 g/m*3 8.9 C 0 km/h
254 29-03-2019 21:05:00 8.8 C 6.88 g/m*3 8.8 C 0 km/h
255 29-03-2019 21:10:00 8.6 C 6.87 g/m*3 8.6 C 0 km/h
256 29-03-2019 21:15:00 8.6 C 6.96 g/m*3 8.6 C 0 km/h
257 29-03-2019 21:20:00 8.4 C 6.87 g/m*3 8.4 C 0 km/h
258 29-03-2019 21:25:00 8.2 C 6.78 g/m*3 8.2 C 0 km/h
259 29-03-2019 21:30:00 8 C 6.7 g/m*3 8 C 0 km/h
260 29-03-2019 21:35:00 7.8 C 6.69 g/m*3 7.8 C 0 km/h
261 29-03-2019 21:40:00 7.8 C 6.69 g/m*3 7.8 C 0 km/h
262 29-03-2019 21:45:00 7.6 C 6.61 g/m*3 7.6 C 0 km/h
263 29-03-2019 21:50:00 7.3 C 6.56 g/m*3 7.3 C 0 km/h
264 29-03-2019 21:55:00 7.3 C 6.64 g/m*3 7.3 C 0 km/h
265 29-03-2019 22:00:00 7.2 C 6.59 g/m*3 7.2 C 0 km/h
266 29-03-2019 22:05:00 7.1 C 6.47 g/m*3 7.1 C 0 km/h
267 29-03-2019 22:10:00 7.1 C 6.55 g/m*3 7.1 C 0 km/h
268 29-03-2019 22:15:00 6.9 C 6.47 g/m*3 6.9 C 0 km/h
269 29-03-2019 22:20:00 6.8 C 6.42 g/m*3 6.8 C 0 km/h
270 29-03-2019 22:25:00 6.8 C 6.5 g/m*3 6.8 C 0 km/h
271 29-03-2019 22:30:00 6.7 C 6.46 g/m*3 6.7 C 0 km/h
272 29-03-2019 22:35:00 6.6 C 6.42 g/m*3 6.6 C 0 km/h
273 29-03-2019 22:40:00 6.4 C 6.33 g/m*3 6.4 C 0 km/h
274 29-03-2019 22:45:00 6.3 C 6.29 g/m*3 6.3 C 0 km/h
275 29-03-2019 22:50:00 6.3 C 6.29 g/m*3 6.3 C 0 km/h
Sensor: Nr:Datum:Temp:Abs-Feuchte:Windchill:Wind:
Aussen-T/F 276 29-03-2019 22:55:00 6.2 C 6.25 g/m*3 6.2 C 0 km/h
277 29-03-2019 23:00:00 6.1 C 6.28 g/m*3 6.1 C 0 km/h
278 29-03-2019 23:05:00 5.9 C 6.2 g/m*3 5.9 C 0 km/h
279 29-03-2019 23:10:00 5.8 C 6.16 g/m*3 5.8 C 0 km/h
280 29-03-2019 23:15:00 5.8 C 6.23 g/m*3 5.8 C 0 km/h
281 29-03-2019 23:20:00 5.8 C 6.23 g/m*3 5.8 C 0 km/h
282 29-03-2019 23:25:00 5.7 C 6.19 g/m*3 5.7 C 0 km/h
283 29-03-2019 23:30:00 5.6 C 6.15 g/m*3 5.6 C 0 km/h
284 29-03-2019 23:35:00 5.4 C 6.07 g/m*3 5.4 C 0 km/h
285 29-03-2019 23:40:00 5.3 C 6.1 g/m*3 5.3 C 0 km/h
286 29-03-2019 23:45:00 5.2 C 6.06 g/m*3 5.2 C 0 km/h
287 29-03-2019 23:50:00 5.2 C 6.13 g/m*3 5.2 C 0 km/h
288 29-03-2019 23:55:00 5.1 C 6.02 g/m*3 5.1 C 0 km/h

Legende:
   Min
   Max


Maximal/Minimal-Werte vom 29.03.2019 - 29.03.2019

Sensor Min Max Avg
Temp
(Aussen-T/F)
1.8 °C
29-03-2019  05:50:00
19.2 °C
29-03-2019  17:25:00
8.96 °C
Abs-Feuchte
(Aussen-T/F)
5.21 g/m*3
29-03-2019  05:50:00
8.68 g/m*3
29-03-2019  11:30:00
6.78 g/m*3
Windchill
(Aussen-T/F)
1.8 C
29-03-2019  05:50:00
19.2 C
29-03-2019  17:25:00
8.92 C

Die Daten stammen von einer Davis Vantage Pro 2 Wetter-Station und werden unter Linux mit der Software wview2wettercgi und aufbereitet. Alle Angaben erfolgen ohne Gewähr für ihre Vollständigkeit oder Richtigkeit.
Kontakt: Rainer Krienke krienke@uni-koblenz.de . Meine Webseiten an der Uni Koblenz oder privat.
Version: $Revision: 0.78 $